createdAt,value
2022-08-19T00:01:29.208Z,18.77
2022-08-19T00:04:04.391Z,18.70
2022-08-19T00:06:31.592Z,18.64
2022-08-19T00:09:01.077Z,18.61
2022-08-19T00:11:28.952Z,18.64
2022-08-19T00:13:57.630Z,18.56
2022-08-19T00:16:26.809Z,18.61
2022-08-19T00:18:56.478Z,18.60
2022-08-19T00:21:26.892Z,18.62
2022-08-19T00:23:55.431Z,18.61
2022-08-19T00:26:22.259Z,18.61
2022-08-19T00:28:49.067Z,18.61
2022-08-19T00:31:17.288Z,18.59
2022-08-19T00:33:44.347Z,18.48
2022-08-19T00:36:12.476Z,18.46
2022-08-19T00:38:44.249Z,18.36
2022-08-19T00:41:15.585Z,18.29
2022-08-19T00:43:42.559Z,18.18
2022-08-19T00:46:10.040Z,18.13
2022-08-19T00:48:37.579Z,18.11
2022-08-19T00:51:06.782Z,18.10
2022-08-19T00:53:35.118Z,18.06
2022-08-19T00:56:05.245Z,18.09
2022-08-19T00:58:34.894Z,18.07
2022-08-19T01:01:03.512Z,17.89
2022-08-19T01:03:56.977Z,17.93
2022-08-19T01:06:19.841Z,17.90
2022-08-19T01:08:50.224Z,17.92
2022-08-19T01:11:17.561Z,17.95
2022-08-19T01:13:50.004Z,18.01
2022-08-19T01:16:19.356Z,18.02
2022-08-19T01:18:46.606Z,18.03
2022-08-19T01:21:28.382Z,18.06
2022-08-19T01:23:55.761Z,17.89
2022-08-19T01:26:25.376Z,17.86
2022-08-19T01:28:57.437Z,17.83
2022-08-19T01:31:33.106Z,17.71
2022-08-19T01:34:01.784Z,17.62
2022-08-19T01:36:31.359Z,17.55
2022-08-19T01:38:59.951Z,17.51
2022-08-19T01:41:26.732Z,17.53
2022-08-19T01:44:12.410Z,17.44
2022-08-19T01:46:42.432Z,17.37
2022-08-19T01:49:09.406Z,17.32
2022-08-19T01:51:40.202Z,17.24
2022-08-19T01:54:09.523Z,17.19
2022-08-19T01:56:36.806Z,17.05
2022-08-19T01:59:09.378Z,16.99
2022-08-19T02:01:36.262Z,16.95
2022-08-19T02:04:03.310Z,16.91
2022-08-19T02:06:30.833Z,16.89
2022-08-19T02:08:58.470Z,16.81
2022-08-19T02:11:35.006Z,16.78
2022-08-19T02:14:04.147Z,16.72
2022-08-19T02:16:31.603Z,16.59
2022-08-19T02:19:01.571Z,16.61
2022-08-19T02:21:30.029Z,16.58
2022-08-19T02:23:57.535Z,16.55
2022-08-19T02:26:24.561Z,16.58
2022-08-19T02:28:51.348Z,16.51
2022-08-19T02:31:21.858Z,16.46
2022-08-19T02:33:49.325Z,16.47
2022-08-19T02:36:17.295Z,16.47
2022-08-19T02:38:55.178Z,16.39
2022-08-19T02:41:26.744Z,16.31
2022-08-19T02:44:26.558Z,16.15
2022-08-19T02:46:42.955Z,16.19
2022-08-19T02:49:09.782Z,16.16
2022-08-19T02:51:41.101Z,16.08
2022-08-19T02:54:09.686Z,16.09
2022-08-19T02:56:38.953Z,16.08
2022-08-19T02:59:10.341Z,16.09
2022-08-19T03:01:41.433Z,16.12
2022-08-19T03:04:11.161Z,16.14
2022-08-19T03:06:39.955Z,16.21
2022-08-19T03:09:06.993Z,16.28
2022-08-19T03:11:34.324Z,16.30
2022-08-19T03:14:02.994Z,16.25
2022-08-19T03:16:33.690Z,16.30
2022-08-19T03:19:02.608Z,16.33
2022-08-19T03:21:34.695Z,16.30
2022-08-19T03:24:08.772Z,16.30
2022-08-19T03:26:40.882Z,16.32
2022-08-19T03:29:11.650Z,16.28
2022-08-19T03:31:52.534Z,16.28
2022-08-19T03:34:29.241Z,16.24
2022-08-19T03:37:07.240Z,16.15
2022-08-19T03:39:34.922Z,16.13
2022-08-19T03:42:30.234Z,16.08
2022-08-19T03:44:50.184Z,16.03
2022-08-19T03:47:17.992Z,15.96
2022-08-19T03:49:45.364Z,15.85
2022-08-19T03:52:12.140Z,15.85
2022-08-19T03:54:39.483Z,15.89
2022-08-19T03:57:06.436Z,15.81
2022-08-19T03:59:36.360Z,15.94
2022-08-19T04:02:10.229Z,15.95
2022-08-19T04:04:39.939Z,16.02
2022-08-19T04:07:07.239Z,15.88
2022-08-19T04:09:35.425Z,16.08
2022-08-19T04:12:02.221Z,16.12
2022-08-19T04:14:34.791Z,16.12
2022-08-19T04:17:06.072Z,16.16
2022-08-19T04:19:35.000Z,16.25
2022-08-19T04:22:02.100Z,16.32
2022-08-19T04:24:29.203Z,16.39
2022-08-19T04:26:56.861Z,16.49
2022-08-19T04:29:26.464Z,16.59
2022-08-19T04:31:56.641Z,16.73
2022-08-19T04:34:27.172Z,16.86
2022-08-19T04:36:56.338Z,17.00
2022-08-19T04:39:45.787Z,17.16
2022-08-19T04:42:31.748Z,17.32
2022-08-19T04:44:59.705Z,17.49
2022-08-19T04:47:48.253Z,17.57
2022-08-19T04:50:14.924Z,17.85
2022-08-19T04:52:46.026Z,18.06
2022-08-19T04:55:13.686Z,18.14
2022-08-19T04:57:41.492Z,18.39
2022-08-19T05:00:10.941Z,18.48
2022-08-19T05:02:38.585Z,18.67
2022-08-19T05:05:07.649Z,18.79
2022-08-19T05:07:34.839Z,19.00
2022-08-19T05:10:01.867Z,19.26
2022-08-19T05:12:29.877Z,19.46
2022-08-19T05:14:58.503Z,19.61
2022-08-19T05:17:28.976Z,19.81
2022-08-19T05:20:17.666Z,19.94
2022-08-19T05:22:47.666Z,20.04
2022-08-19T05:25:21.730Z,20.16
2022-08-19T05:27:48.598Z,20.24
2022-08-19T05:30:16.675Z,20.20
2022-08-19T05:32:43.489Z,20.42
2022-08-19T05:35:10.760Z,20.50
2022-08-19T05:37:38.812Z,20.61
2022-08-19T05:40:06.077Z,20.71
2022-08-19T05:42:32.967Z,20.85
2022-08-19T05:44:59.809Z,20.91
2022-08-19T05:47:26.800Z,21.03
2022-08-19T05:49:53.621Z,21.06
2022-08-19T05:52:25.977Z,21.22
2022-08-19T05:54:56.191Z,21.41
2022-08-19T05:57:24.654Z,21.41
2022-08-19T05:59:56.748Z,21.49
2022-08-19T06:02:28.798Z,21.65
2022-08-19T06:04:55.671Z,21.73
2022-08-19T06:07:22.962Z,21.84
2022-08-19T06:09:58.932Z,22.06
2022-08-19T06:12:32.780Z,22.02
2022-08-19T06:15:02.241Z,22.27
2022-08-19T06:17:32.623Z,22.41
2022-08-19T06:20:00.191Z,22.57
2022-08-19T06:22:28.409Z,22.77
2022-08-19T06:24:56.797Z,22.93
2022-08-19T06:27:24.278Z,22.94
2022-08-19T06:29:51.135Z,23.00
2022-08-19T06:32:20.170Z,23.06
2022-08-19T06:34:47.513Z,23.29
2022-08-19T06:37:15.076Z,23.45
2022-08-19T06:39:44.767Z,23.64
2022-08-19T06:42:14.138Z,23.81
2022-08-19T06:44:43.285Z,23.93
2022-08-19T06:47:22.998Z,24.08
2022-08-19T06:49:54.822Z,24.31
2022-08-19T06:52:27.663Z,24.43
2022-08-19T06:54:59.550Z,24.52
2022-08-19T06:57:27.781Z,24.38
2022-08-19T06:59:55.754Z,24.53
2022-08-19T07:02:23.599Z,24.74
2022-08-19T07:04:52.614Z,24.80
2022-08-19T07:07:21.825Z,24.87
2022-08-19T07:09:51.864Z,24.82
2022-08-19T07:12:25.492Z,24.97
2022-08-19T07:14:54.613Z,25.13
2022-08-19T07:17:21.865Z,25.35
2022-08-19T07:19:48.730Z,25.48
2022-08-19T07:22:15.993Z,25.59
2022-08-19T07:24:51.288Z,25.77
2022-08-19T07:27:24.738Z,26.01
2022-08-19T07:29:54.508Z,26.20
2022-08-19T07:32:23.684Z,26.28
2022-08-19T07:34:50.444Z,26.40
2022-08-19T07:37:17.267Z,26.58
2022-08-19T07:39:44.082Z,26.69
2022-08-19T07:42:13.319Z,26.92
2022-08-19T07:47:49.744Z,26.95
2022-08-19T07:49:59.689Z,27.15
2022-08-19T07:52:26.664Z,27.32
2022-08-19T07:54:53.437Z,27.55
2022-08-19T07:57:20.182Z,27.73
2022-08-19T07:59:47.071Z,27.82
2022-08-19T08:02:14.003Z,28.02
2022-08-19T08:04:59.298Z,28.25
2022-08-19T08:07:46.445Z,28.26
2022-08-19T08:10:20.651Z,28.37
2022-08-19T08:13:01.858Z,28.49
2022-08-19T08:15:41.301Z,28.62
2022-08-19T08:18:08.996Z,28.66
2022-08-19T08:20:36.232Z,28.53
2022-08-19T08:23:21.964Z,28.77
2022-08-19T08:25:50.027Z,28.81
2022-08-19T08:28:18.284Z,28.97
2022-08-19T08:30:48.487Z,28.91
2022-08-19T08:33:33.378Z,28.56
2022-08-19T08:36:12.402Z,28.68
2022-08-19T08:38:40.813Z,29.06
2022-08-19T08:41:31.355Z,29.30
2022-08-19T08:43:59.737Z,29.49
2022-08-19T08:46:52.742Z,29.60
2022-08-19T08:49:43.582Z,29.71
2022-08-19T08:52:30.703Z,29.83
2022-08-19T08:55:02.494Z,30.08
2022-08-19T08:57:45.397Z,30.35
2022-08-19T09:00:17.806Z,30.55
2022-08-19T09:02:50.560Z,30.84
2022-08-19T09:05:22.158Z,30.95
2022-08-19T09:08:03.744Z,31.17
2022-08-19T09:10:44.343Z,31.31
2022-08-19T09:13:38.998Z,30.90
2022-08-19T09:16:21.648Z,30.73
2022-08-19T09:18:59.073Z,31.01
2022-08-19T09:21:33.196Z,31.23
2022-08-19T09:24:03.523Z,31.40
2022-08-19T09:26:47.594Z,31.64
2022-08-19T09:29:18.242Z,31.85
2022-08-19T09:31:45.094Z,32.09
2022-08-19T09:34:20.739Z,31.82
2022-08-19T09:36:50.531Z,31.96
2022-08-19T09:39:18.162Z,32.24
2022-08-19T09:41:47.587Z,32.60
2022-08-19T09:44:17.035Z,32.55
2022-08-19T09:46:45.051Z,32.67
2022-08-19T09:49:11.956Z,32.83
2022-08-19T09:51:40.363Z,32.98
2022-08-19T09:54:07.956Z,33.10
2022-08-19T09:56:38.586Z,33.08
2022-08-19T09:59:10.400Z,33.08
2022-08-19T10:01:37.187Z,33.11
2022-08-19T10:04:20.110Z,33.04
2022-08-19T10:06:53.627Z,33.31
2022-08-19T10:09:33.710Z,33.33
2022-08-19T10:12:03.621Z,33.50
2022-08-19T10:14:31.621Z,33.79
2022-08-19T10:16:59.164Z,34.02
2022-08-19T10:19:26.791Z,34.12
2022-08-19T10:21:55.596Z,34.06
2022-08-19T10:24:28.794Z,34.52
2022-08-19T10:26:59.138Z,34.69
2022-08-19T10:29:32.660Z,34.88
2022-08-19T10:32:09.542Z,34.60
2022-08-19T10:34:48.375Z,34.68
2022-08-19T10:37:23.693Z,35.32
2022-08-19T10:39:55.646Z,35.41
2022-08-19T10:42:22.863Z,35.26
2022-08-19T10:44:49.671Z,35.45
2022-08-19T10:47:26.119Z,35.79
2022-08-19T10:50:17.240Z,34.96
2022-08-19T10:52:49.257Z,35.51
2022-08-19T10:55:36.977Z,35.74
2022-08-19T10:58:03.951Z,35.89
2022-08-19T11:00:32.491Z,35.89
2022-08-19T11:02:59.456Z,35.71
2022-08-19T11:05:26.390Z,35.99
2022-08-19T11:07:53.484Z,36.01
2022-08-19T11:10:22.524Z,36.15
2022-08-19T11:12:55.649Z,36.40
2022-08-19T11:15:22.960Z,36.53
2022-08-19T11:17:49.891Z,36.72
2022-08-19T11:20:16.924Z,36.91
2022-08-19T11:22:43.747Z,37.53
2022-08-19T11:25:12.210Z,37.82
2022-08-19T11:27:47.279Z,37.38
2022-08-19T11:30:15.026Z,37.36
2022-08-19T11:32:45.881Z,37.20
2022-08-19T11:35:17.284Z,37.10
2022-08-19T11:37:44.062Z,37.38
2022-08-19T11:40:11.510Z,37.63
2022-08-19T11:42:57.655Z,38.14
2022-08-19T11:45:26.690Z,37.23
2022-08-19T11:47:54.235Z,37.47
2022-08-19T11:50:21.224Z,37.45
2022-08-19T11:52:48.712Z,37.96
2022-08-19T11:55:15.626Z,38.37
2022-08-19T11:57:44.677Z,38.43
2022-08-19T12:00:14.046Z,39.21
2022-08-19T12:02:41.824Z,39.11
2022-08-19T12:05:12.253Z,39.14
2022-08-19T12:07:40.785Z,39.72
2022-08-19T12:10:08.317Z,39.59
2022-08-19T12:12:35.818Z,40.09
2022-08-19T12:15:03.118Z,40.42
2022-08-19T12:17:31.894Z,41.08
2022-08-19T12:19:58.664Z,41.28
2022-08-19T12:22:25.755Z,41.75
2022-08-19T12:24:54.356Z,41.70
2022-08-19T12:27:40.010Z,41.29
2022-08-19T12:30:11.928Z,40.34
2022-08-19T12:32:39.625Z,39.72
2022-08-19T12:35:09.283Z,39.28
2022-08-19T12:37:36.462Z,39.46
2022-08-19T12:40:05.027Z,39.90
2022-08-19T12:42:32.035Z,39.56
2022-08-19T12:44:58.849Z,38.75
2022-08-19T12:47:27.482Z,38.62
2022-08-19T12:49:56.039Z,38.78
2022-08-19T12:52:28.421Z,38.76
2022-08-19T12:54:57.536Z,39.91
2022-08-19T12:57:32.638Z,40.25
2022-08-19T13:00:04.721Z,41.18
2022-08-19T13:02:39.029Z,42.19
2022-08-19T13:05:09.514Z,42.62
2022-08-19T13:07:38.287Z,41.35
2022-08-19T13:10:07.155Z,40.72
2022-08-19T13:12:34.114Z,41.06
2022-08-19T13:15:01.151Z,41.94
2022-08-19T13:17:28.301Z,42.25
2022-08-19T13:19:55.091Z,42.81
2022-08-19T13:22:21.910Z,43.31
2022-08-19T13:24:49.416Z,43.39
2022-08-19T13:27:16.422Z,43.14
2022-08-19T13:30:03.518Z,43.51
2022-08-19T13:32:50.108Z,43.64
2022-08-19T13:35:17.904Z,43.73
2022-08-19T13:37:46.524Z,44.06
2022-08-19T13:40:17.370Z,43.45
2022-08-19T13:42:49.296Z,42.18
2022-08-19T13:45:19.170Z,41.87
2022-08-19T13:47:52.083Z,42.28
2022-08-19T13:50:28.255Z,42.83
2022-08-19T13:52:57.305Z,43.31
2022-08-19T13:55:25.415Z,43.80
2022-08-19T13:57:54.305Z,44.40
2022-08-19T14:00:22.796Z,45.03
2022-08-19T14:02:52.679Z,45.49
2022-08-19T14:05:20.927Z,44.95
2022-08-19T14:07:49.161Z,44.09
2022-08-19T14:10:17.071Z,43.87
2022-08-19T14:12:43.809Z,44.28
2022-08-19T14:15:12.769Z,43.62
2022-08-19T14:17:41.648Z,43.17
2022-08-19T14:20:11.370Z,43.84
2022-08-19T14:22:46.170Z,43.29
2022-08-19T14:25:20.428Z,43.15
2022-08-19T14:27:48.188Z,42.15
2022-08-19T14:30:17.970Z,41.92
2022-08-19T14:32:45.012Z,41.59
2022-08-19T14:35:13.669Z,41.87
2022-08-19T14:37:45.492Z,40.92
2022-08-19T14:40:15.460Z,41.26
2022-08-19T14:42:42.986Z,41.45
2022-08-19T14:45:12.091Z,41.35
2022-08-19T14:47:39.664Z,41.85
2022-08-19T14:50:17.899Z,42.59
2022-08-19T14:52:49.175Z,42.92
2022-08-19T14:55:18.803Z,43.49
2022-08-19T14:57:46.212Z,43.77
2022-08-19T15:00:16.701Z,44.26
2022-08-19T15:02:45.324Z,44.95
2022-08-19T15:05:13.827Z,45.30
2022-08-19T15:07:42.038Z,45.52
2022-08-19T15:10:10.659Z,45.90
2022-08-19T15:12:43.490Z,46.21
2022-08-19T15:15:15.849Z,46.13
2022-08-19T15:17:46.519Z,46.21
2022-08-19T15:20:16.396Z,46.04
2022-08-19T15:22:43.449Z,45.71
2022-08-19T15:25:12.347Z,45.32
2022-08-19T15:27:40.762Z,45.17
2022-08-19T15:30:12.236Z,45.23
2022-08-19T15:32:39.801Z,45.17
2022-08-19T15:35:08.077Z,45.39
2022-08-19T15:37:37.154Z,45.51
2022-08-19T15:40:06.568Z,45.29
2022-08-19T15:42:35.446Z,45.42
2022-08-19T15:45:02.651Z,45.25
2022-08-19T15:47:35.541Z,45.26
2022-08-19T15:50:21.422Z,45.05
2022-08-19T15:52:51.306Z,44.75
2022-08-19T15:55:33.065Z,44.62
2022-08-19T15:58:29.884Z,44.30
2022-08-19T16:01:22.091Z,43.97
2022-08-19T16:04:14.154Z,43.82
2022-08-19T16:06:47.976Z,43.60
2022-08-19T16:09:16.315Z,43.55
2022-08-19T16:11:46.400Z,43.50
2022-08-19T16:14:18.627Z,43.32
2022-08-19T16:16:47.806Z,43.46
2022-08-19T16:19:17.190Z,43.28
2022-08-19T16:21:50.331Z,42.93
2022-08-19T16:24:19.972Z,42.54
2022-08-19T16:26:47.043Z,42.20
2022-08-19T16:29:15.338Z,41.90
2022-08-19T16:31:57.781Z,41.63
2022-08-19T16:34:25.834Z,41.33
2022-08-19T16:36:53.109Z,41.08
2022-08-19T16:39:19.957Z,40.69
2022-08-19T16:41:47.141Z,40.18
2022-08-19T16:44:15.443Z,39.37
2022-08-19T16:46:42.474Z,38.72
2022-08-19T16:49:10.744Z,38.35
2022-08-19T16:51:39.387Z,37.75
2022-08-19T16:54:06.794Z,37.10
2022-08-19T16:56:33.858Z,36.61
2022-08-19T16:59:00.783Z,36.10
2022-08-19T17:01:28.878Z,35.41
2022-08-19T17:03:57.175Z,35.04
2022-08-19T17:06:28.781Z,34.55
2022-08-19T17:08:59.152Z,34.04
2022-08-19T17:11:28.102Z,33.52
2022-08-19T17:13:56.846Z,33.17
2022-08-19T17:16:25.788Z,32.80
2022-08-19T17:18:57.576Z,32.54
2022-08-19T17:21:28.480Z,32.28
2022-08-19T17:23:56.886Z,32.06
2022-08-19T17:26:25.366Z,31.85
2022-08-19T17:28:54.088Z,31.58
2022-08-19T17:31:23.711Z,31.35
2022-08-19T17:33:51.503Z,31.20
2022-08-19T17:36:23.550Z,30.99
2022-08-19T17:38:52.092Z,30.84
2022-08-19T17:41:19.136Z,30.64
2022-08-19T17:43:46.131Z,30.49
2022-08-19T17:46:20.410Z,30.45
2022-08-19T17:48:56.792Z,30.25
2022-08-19T17:51:41.971Z,30.07
2022-08-19T17:54:12.624Z,30.01
2022-08-19T17:56:39.580Z,29.84
2022-08-19T17:59:07.875Z,29.65
2022-08-19T18:01:52.728Z,29.44
2022-08-19T18:04:22.297Z,29.32
2022-08-19T18:06:52.973Z,29.20
2022-08-19T18:09:27.599Z,29.04
2022-08-19T18:11:57.248Z,28.92
2022-08-19T18:14:33.351Z,28.81
2022-08-19T18:17:08.951Z,28.55
2022-08-19T18:19:41.947Z,28.24
2022-08-19T18:22:22.625Z,28.20
2022-08-19T18:24:49.832Z,27.92
2022-08-19T18:27:16.955Z,27.97
2022-08-19T18:29:44.920Z,27.93
2022-08-19T18:32:12.911Z,27.87
2022-08-19T18:34:41.721Z,27.79
2022-08-19T18:37:09.037Z,27.70
2022-08-19T18:39:54.280Z,27.64
2022-08-19T18:42:39.706Z,27.50
2022-08-19T18:45:26.045Z,27.39
2022-08-19T18:48:26.305Z,27.31
2022-08-19T18:50:56.316Z,27.18
2022-08-19T18:53:24.250Z,26.99
2022-08-19T18:55:53.992Z,26.86
2022-08-19T18:58:32.194Z,26.86
2022-08-19T19:01:10.601Z,26.81
2022-08-19T19:03:43.651Z,26.63
2022-08-19T19:06:10.557Z,26.47
2022-08-19T19:08:38.966Z,26.21
2022-08-19T19:11:06.281Z,26.30
2022-08-19T19:13:34.505Z,26.22
2022-08-19T19:16:02.252Z,26.04
2022-08-19T19:18:30.066Z,25.98
2022-08-19T19:20:57.592Z,25.86
2022-08-19T19:23:24.636Z,25.74
2022-08-19T19:25:52.402Z,25.62
2022-08-19T19:28:28.388Z,25.48
2022-08-19T19:30:58.542Z,25.46
2022-08-19T19:33:26.787Z,25.40
2022-08-19T19:35:53.625Z,25.31
2022-08-19T19:38:20.513Z,25.32
2022-08-19T19:40:47.494Z,25.29
2022-08-19T19:43:17.423Z,25.17
2022-08-19T19:45:46.231Z,25.17
2022-08-19T19:48:14.964Z,25.10
2022-08-19T19:50:43.284Z,25.05
2022-08-19T19:53:10.189Z,24.95
2022-08-19T19:55:37.168Z,24.92
2022-08-19T19:58:07.131Z,24.88
2022-08-19T20:00:34.388Z,24.75
2022-08-19T20:03:01.207Z,24.75
2022-08-19T20:05:28.309Z,24.78
2022-08-19T20:08:14.764Z,24.71
2022-08-19T20:10:43.319Z,24.63
2022-08-19T20:13:11.351Z,24.60
2022-08-19T20:15:42.353Z,24.68
2022-08-19T20:18:11.727Z,24.59
2022-08-19T20:20:38.924Z,24.61
2022-08-19T20:23:06.170Z,24.52
2022-08-19T20:25:33.676Z,24.41
2022-08-19T20:28:01.436Z,24.32
2022-08-19T20:30:30.994Z,24.17
2022-08-19T20:33:00.100Z,24.04
2022-08-19T20:35:26.942Z,24.08
2022-08-19T20:37:58.016Z,24.09
2022-08-19T20:40:28.768Z,23.96
2022-08-19T20:42:56.698Z,23.95
2022-08-19T20:45:32.959Z,23.92
2022-08-19T20:48:03.304Z,23.82
2022-08-19T20:50:32.857Z,23.78
2022-08-19T20:53:00.677Z,23.80
2022-08-19T20:55:28.930Z,23.81
2022-08-19T20:57:56.594Z,23.78
2022-08-19T21:00:30.782Z,23.77
2022-08-19T21:12:39.943Z,23.70
2022-08-19T21:15:07.364Z,23.71
2022-08-19T21:17:34.173Z,23.68
2022-08-19T21:20:01.141Z,23.70
2022-08-19T21:22:27.912Z,23.77
2022-08-19T21:24:55.269Z,23.79
2022-08-19T21:27:22.073Z,23.88
2022-08-19T21:29:49.357Z,23.92
2022-08-19T21:32:16.788Z,23.93
2022-08-19T21:34:46.108Z,23.94
2022-08-19T21:37:25.384Z,23.92
2022-08-19T21:39:54.381Z,23.93
2022-08-19T21:42:23.364Z,23.91
2022-08-19T21:44:50.478Z,23.89
2022-08-19T21:47:17.545Z,23.87
2022-08-19T21:49:44.348Z,23.78
2022-08-19T21:52:11.229Z,23.80
2022-08-19T21:54:38.666Z,23.74
2022-08-19T21:57:10.169Z,23.73
2022-08-19T21:59:43.532Z,23.73
2022-08-19T22:02:20.352Z,23.73
2022-08-19T22:04:49.045Z,23.68
2022-08-19T22:07:16.030Z,23.60
2022-08-19T22:09:45.210Z,23.65
2022-08-19T22:12:29.487Z,23.57
2022-08-19T22:14:56.926Z,23.63
2022-08-19T22:17:24.619Z,23.56
2022-08-19T22:19:52.685Z,23.60
2022-08-19T22:22:25.256Z,23.55
2022-08-19T22:24:53.507Z,23.56
2022-08-19T22:27:20.975Z,23.55
2022-08-19T22:29:47.886Z,23.42
2022-08-19T22:32:28.319Z,23.48
2022-08-19T22:34:58.194Z,23.40
2022-08-19T22:37:26.150Z,23.41
2022-08-19T22:39:53.337Z,23.46
2022-08-19T22:42:21.188Z,23.43
2022-08-19T22:44:48.903Z,23.40
2022-08-19T22:47:15.866Z,23.35
2022-08-19T22:49:42.591Z,23.37
2022-08-19T22:52:17.470Z,23.38
2022-08-19T22:54:46.675Z,23.32
2022-08-19T22:57:14.811Z,23.25
2022-08-19T22:59:43.977Z,23.32
2022-08-19T23:02:12.014Z,23.29
2022-08-19T23:04:38.828Z,23.30
2022-08-19T23:07:05.987Z,23.28
2022-08-19T23:09:32.800Z,23.30
2022-08-19T23:12:00.695Z,23.27
2022-08-19T23:14:28.120Z,23.17
2022-08-19T23:16:58.765Z,23.13
2022-08-19T23:19:26.131Z,23.15
2022-08-19T23:21:52.951Z,23.15
2022-08-19T23:24:19.795Z,23.18
2022-08-19T23:27:05.012Z,23.12
2022-08-19T23:29:50.501Z,23.00
2022-08-19T23:32:19.107Z,23.00
2022-08-19T23:34:46.488Z,22.93
2022-08-19T23:37:13.349Z,22.90
2022-08-19T23:39:40.936Z,22.80
2022-08-19T23:42:11.507Z,22.72
2022-08-19T23:44:51.359Z,22.55
2022-08-19T23:47:19.277Z,22.56
2022-08-19T23:49:47.603Z,22.43
2022-08-19T23:52:14.473Z,22.45
2022-08-19T23:54:43.409Z,22.38
2022-08-19T23:57:13.493Z,22.36
2022-08-19T23:59:42.723Z,22.28
